Wednesday, January 17, 2018, 7:09 PM EST

KPTB, Petersburg, Dinwiddie County Airport

Location: Petersburg, VA, United States Lat: 37.183
Local Time: 7:09 PM EST ( 0:09 GMT) Lon: -77.517
Time Zone: US/Eastern Elev: 193 ft

Show me the last for .
Show Decoded

2018-01-17 18:43 METAR KPTB 172343Z AUTO 35010KT 2 1/2SM -SN BKN012 BKN018 OVC046 M05/M08 A3029
                 RMK AO2 =
2018-01-17 18:23 METAR KPTB 172323Z AUTO 35007KT 4SM -SN SCT012 BKN017 OVC046 M05/M08 A3029 RMK
                 AO2 =
2018-01-17 18:02 METAR KPTB 172302Z AUTO 35007KT 7SM -SN SCT014 SCT019 OVC046 M05/M08 A3029 RMK
                 AO2 =
2018-01-17 17:22 METAR KPTB 172222Z AUTO 35008KT 2 1/2SM -SN SCT014 BKN034 OVC049 M04/M08 A3028
                 RMK AO2 =
2018-01-17 17:03 METAR KPTB 172203Z AUTO 34006KT 3SM -SN SCT014 OVC045 M04/M07 A3028 RMK AO2 =
2018-01-17 16:42 METAR KPTB 172142Z AUTO 35006KT 4SM -SN OVC043 M04/M08 A3029 RMK AO2 =
2018-01-17 16:02 METAR KPTB 172102Z AUTO 36009KT 3SM -SN OVC015 M04/M07 A3028 RMK AO2 =
2018-01-17 15:42 METAR KPTB 172042Z AUTO 35007KT 4SM -SN OVC013 M04/M07 A3029 RMK AO2 =
2018-01-17 15:22 METAR KPTB 172022Z AUTO 01008KT 3SM -SN BKN015 OVC043 M04/M07 A3029 RMK AO2 =
2018-01-17 15:03 METAR KPTB 172003Z AUTO 36007KT 2SM -SN BKN014 OVC019 M03/M07 A3029 RMK AO2 =
2018-01-17 14:42 METAR KPTB 171942Z AUTO 02008G16KT 2 1/2SM -SN SCT014 SCT021 OVC045 M03/M07
                 A3029 RMK AO2 =
2018-01-17 14:22 METAR KPTB 171922Z AUTO 36010G19KT 2SM -SN SCT012 OVC035 M03/M07 A3030 RMK AO2 =
2018-01-17 14:02 METAR KPTB 171902Z AUTO 36010G15KT 2SM -SN OVC012 M03/M06 A3030 RMK AO2 =
2018-01-17 13:42 METAR KPTB 171842Z AUTO 36009KT 1 1/4SM -SN OVC009 M03/M06 A3031 RMK AO2 =
2018-01-17 13:22 METAR KPTB 171822Z AUTO 02011G15KT 1 3/4SM -SN OVC009 M03/M05 A3031 RMK AO2 =
2018-01-17 13:03 METAR KPTB 171803Z AUTO 02008KT 1 1/2SM -SN OVC009 M02/M04 A3031 RMK AO2 =
2018-01-17 12:42 METAR KPTB 171742Z AUTO 02007KT 2SM -SN SCT005 OVC009 M02/M04 A3032 RMK AO2 =
2018-01-17 12:22 METAR KPTB 171722Z AUTO 02008KT 1SM -SN OVC005 M02/M04 A3033 RMK AO2 =
2018-01-17 12:02 METAR KPTB 171702Z AUTO 01005KT 1 1/2SM -SN OVC007 M01/M03 A3034 RMK AO2 =
2018-01-17 11:42 METAR KPTB 171642Z AUTO 36006KT 1 3/4SM -SN BKN007 OVC013 M01/M03 A3035 RMK AO2
                 =
2018-01-17 11:22 METAR KPTB 171622Z AUTO 35005KT 1 1/2SM -SN OVC007 M01/M03 A3036 RMK AO2 =
2018-01-17 11:02 METAR KPTB 171602Z AUTO 01006KT 1 3/4SM -SN BKN007 OVC014 M01/M03 A3036 RMK AO2
                 =
2018-01-17 10:42 METAR KPTB 171542Z AUTO 36006KT 1 1/4SM -SN OVC007 M01/M03 A3035 RMK AO2 =
2018-01-17 10:23 METAR KPTB 171523Z AUTO 36005KT 1SM -SN OVC007 M01/M02 A3034 RMK AO2 =
2018-01-17 10:02 METAR KPTB 171502Z AUTO 36007KT 1 1/2SM -SN OVC005 M01/M02 A3035 RMK AO2 =
2018-01-17 09:42 METAR KPTB 171442Z AUTO 02006KT 1 3/4SM -SN OVC005 M01/M02 A3034 RMK AO2 =
2018-01-17 09:23 METAR KPTB 171423Z AUTO 03007KT 1 1/4SM -SN OVC005 M01/M02 A3033 RMK AO2 =
2018-01-17 09:02 METAR KPTB 171402Z AUTO 02008KT 1 1/2SM -SN OVC005 M01/M02 A3033 RMK AO2 =
2018-01-17 08:43 METAR KPTB 171343Z AUTO 03008KT 2SM -SN OVC005 M01/M02 A3033 RMK AO2 =
2018-01-17 08:22 METAR KPTB 171322Z AUTO 02006KT 1 1/2SM -SN OVC005 00/M01 A3033 RMK AO2 =
2018-01-17 08:02 METAR KPTB 171302Z AUTO 01004KT 1 1/4SM -SN OVC005 00/M01 A3032 RMK AO2 =
2018-01-17 07:42 METAR KPTB 171242Z AUTO 01007KT 2SM -SN BKN007 OVC016 00/M01 A3032 RMK AO2 =
2018-01-17 07:22 METAR KPTB 171222Z AUTO 36007KT 3SM -SN BKN009 BKN018 OVC025 01/M01 A3032 RMK
                 AO2 =
2018-01-17 06:42 METAR KPTB 171142Z AUTO 01007KT 7SM -SN BKN045 OVC050 01/M02 A3031 RMK AO2 =
2018-01-17 06:22 METAR KPTB 171122Z AUTO 36005KT 10SM SCT050 OVC065 01/M03 A3031 RMK AO2 =
2018-01-17 06:02 METAR KPTB 171102Z AUTO 01005KT 10SM BKN075 OVC090 02/M03 A3031 RMK AO2 =
2018-01-17 05:43 METAR KPTB 171043Z AUTO 35005KT 10SM SCT045 BKN055 OVC070 02/M04 A3031 RMK AO2 =
2018-01-17 05:22 METAR KPTB 171022Z AUTO 35004KT 10SM SCT045 OVC055 02/M04 A3031 RMK AO2 =
2018-01-17 05:02 METAR KPTB 171002Z AUTO 36005KT 10SM SCT047 OVC055 02/M04 A3030 RMK AO2 =
2018-01-17 04:42 METAR KPTB 170942Z AUTO 36004KT 10SM SCT046 OVC055 01/M03 A3030 RMK AO2 =
2018-01-17 04:22 METAR KPTB 170922Z AUTO 00000KT 10SM SCT046 OVC060 01/M03 A3029 RMK AO2 =
2018-01-17 04:02 METAR KPTB 170902Z AUTO 00000KT 10SM BKN065 OVC070 01/M03 A3029 RMK AO2 =
2018-01-17 03:43 METAR KPTB 170843Z AUTO 00000KT 10SM OVC075 00/M03 A3029 RMK AO2 =
2018-01-17 03:22 METAR KPTB 170822Z AUTO 00000KT 10SM OVC075 00/M03 A3029 RMK AO2 =
2018-01-17 03:02 METAR KPTB 170802Z AUTO 00000KT 10SM SCT085 OVC090 00/M03 A3029 RMK AO2 =
2018-01-17 02:42 METAR KPTB 170742Z AUTO 00000KT 10SM OVC085 00/M03 A3029 RMK AO2 =
2018-01-17 02:22 METAR KPTB 170722Z AUTO 00000KT 10SM OVC085 M01/M03 A3030 RMK AO2 =
2018-01-17 02:03 METAR KPTB 170703Z AUTO 00000KT 10SM OVC085 M01/M03 A3029 RMK AO2 =
2018-01-17 01:42 METAR KPTB 170642Z AUTO 00000KT 10SM BKN085 M01/M04 A3029 RMK AO2 =
2018-01-17 01:22 METAR KPTB 170622Z AUTO 00000KT 10SM CLR M01/M04 A3030 RMK AO2 =
2018-01-17 01:02 METAR KPTB 170602Z AUTO 00000KT 10SM SCT090 M01/M04 A3030 RMK AO2 =
2018-01-17 00:42 METAR KPTB 170542Z AUTO 00000KT 10SM BKN090 M01/M04 A3031 RMK AO2 =
2018-01-17 00:22 METAR KPTB 170522Z AUTO 00000KT 10SM BKN090 M01/M04 A3031 RMK AO2 =
2018-01-17 00:02 METAR KPTB 170502Z AUTO 00000KT 10SM BKN110 M01/M04 A3031 RMK AO2 =
2018-01-16 23:22 METAR KPTB 170422Z AUTO 00000KT 10SM SCT120 M01/M05 A3033 RMK AO2 =
2018-01-16 23:02 METAR KPTB 170402Z AUTO 00000KT 10SM SCT110 M01/M04 A3034 RMK AO2 =
2018-01-16 22:42 METAR KPTB 170342Z AUTO 00000KT 10SM BKN110 M01/M04 A3034 RMK AO2 =
2018-01-16 22:22 METAR KPTB 170322Z AUTO 00000KT 10SM OVC110 M01/M04 A3034 RMK AO2 =
2018-01-16 22:02 METAR KPTB 170302Z AUTO 00000KT 10SM OVC110 M01/M05 A3034 RMK AO2 =
2018-01-16 21:42 METAR KPTB 170242Z AUTO 00000KT 10SM OVC120 M02/M04 A3035 RMK AO2 =
2018-01-16 21:22 METAR KPTB 170222Z AUTO 00000KT 10SM BKN120 M02/M06 A3035 RMK AO2 =
2018-01-16 21:03 METAR KPTB 170203Z AUTO 00000KT 10SM SCT120 M03/M06 A3035 RMK AO2 =
2018-01-16 20:42 METAR KPTB 170142Z AUTO 00000KT 10SM CLR M03/M06 A3036 RMK AO2 =
2018-01-16 20:22 METAR KPTB 170122Z AUTO 00000KT 7SM CLR M03/M06 A3035 RMK AO2 =
2018-01-16 20:02 METAR KPTB 170102Z AUTO 00000KT 10SM CLR M03/M06 A3035 RMK AO2 =
2018-01-16 19:42 METAR KPTB 170042Z AUTO 00000KT 10SM CLR M02/M07 A3036 RMK AO2 =
2018-01-16 19:22 METAR KPTB 170022Z AUTO 00000KT 10SM CLR M02/M06 A3036 RMK AO2 =

Support USWX by starting your Amazon purchase here.